sensor_id;sensor_type;location;lat;lon;timestamp;temperature;humidity
24250;DHT22;12379;49.820;8.648;2023-01-24T00:01:06;2.80;99.90
24250;DHT22;12379;49.820;8.648;2023-01-24T00:03:32;2.80;99.90
24250;DHT22;12379;49.820;8.648;2023-01-24T00:05:57;2.80;99.90
24250;DHT22;12379;49.820;8.648;2023-01-24T00:08:23;2.80;99.90
24250;DHT22;12379;49.820;8.648;2023-01-24T00:10:57;2.80;99.90
24250;DHT22;12379;49.820;8.648;2023-01-24T00:13:23;2.80;99.90
24250;DHT22;12379;49.820;8.648;2023-01-24T00:15:48;2.80;99.90
24250;DHT22;12379;49.820;8.648;2023-01-24T00:18:14;2.80;99.90
24250;DHT22;12379;49.820;8.648;2023-01-24T00:20:39;2.80;99.90
24250;DHT22;12379;49.820;8.648;2023-01-24T00:23:05;2.80;99.90
24250;DHT22;12379;49.820;8.648;2023-01-24T00:25:30;2.80;99.90
24250;DHT22;12379;49.820;8.648;2023-01-24T00:27:56;2.80;99.90
24250;DHT22;12379;49.820;8.648;2023-01-24T00:30:21;2.80;99.90
24250;DHT22;12379;49.820;8.648;2023-01-24T00:32:47;2.80;99.90
24250;DHT22;12379;49.820;8.648;2023-01-24T00:35:13;2.80;99.90
24250;DHT22;12379;49.820;8.648;2023-01-24T00:37:38;2.80;99.90
24250;DHT22;12379;49.820;8.648;2023-01-24T00:40:04;2.80;99.90
24250;DHT22;12379;49.820;8.648;2023-01-24T00:42:30;2.80;99.90
24250;DHT22;12379;49.820;8.648;2023-01-24T00:44:55;2.80;99.90
24250;DHT22;12379;49.820;8.648;2023-01-24T00:47:21;2.80;99.90
24250;DHT22;12379;49.820;8.648;2023-01-24T00:49:47;2.80;99.90
24250;DHT22;12379;49.820;8.648;2023-01-24T00:52:12;2.80;99.90
24250;DHT22;12379;49.820;8.648;2023-01-24T00:54:38;2.80;99.90
24250;DHT22;12379;49.820;8.648;2023-01-24T00:57:03;2.80;99.90
24250;DHT22;12379;49.820;8.648;2023-01-24T00:59:29;2.80;99.90
24250;DHT22;12379;49.820;8.648;2023-01-24T01:01:54;2.80;99.90
24250;DHT22;12379;49.820;8.648;2023-01-24T01:04:20;2.80;99.90
24250;DHT22;12379;49.820;8.648;2023-01-24T01:06:45;2.80;99.90
24250;DHT22;12379;49.820;8.648;2023-01-24T01:09:11;2.80;99.90
24250;DHT22;12379;49.820;8.648;2023-01-24T01:11:37;2.80;99.90
24250;DHT22;12379;49.820;8.648;2023-01-24T01:14:07;2.70;99.90
24250;DHT22;12379;49.820;8.648;2023-01-24T01:16:33;2.80;99.90
24250;DHT22;12379;49.820;8.648;2023-01-24T01:19:03;2.70;99.90
24250;DHT22;12379;49.820;8.648;2023-01-24T01:21:29;2.80;99.90
24250;DHT22;12379;49.820;8.648;2023-01-24T01:23:54;2.70;99.90
24250;DHT22;12379;49.820;8.648;2023-01-24T01:26:21;2.70;99.90
24250;DHT22;12379;49.820;8.648;2023-01-24T01:28:47;2.70;99.90
24250;DHT22;12379;49.820;8.648;2023-01-24T01:31:14;2.70;99.90
24250;DHT22;12379;49.820;8.648;2023-01-24T01:33:40;2.70;99.90
24250;DHT22;12379;49.820;8.648;2023-01-24T01:36:06;2.70;99.90
24250;DHT22;12379;49.820;8.648;2023-01-24T01:38:32;2.70;99.90
24250;DHT22;12379;49.820;8.648;2023-01-24T01:40:58;2.60;99.90
24250;DHT22;12379;49.820;8.648;2023-01-24T01:43:26;2.70;99.90
24250;DHT22;12379;49.820;8.648;2023-01-24T01:45:58;2.60;99.90
24250;DHT22;12379;49.820;8.648;2023-01-24T01:48:34;2.70;99.90
24250;DHT22;12379;49.820;8.648;2023-01-24T01:53:42;2.70;99.90
24250;DHT22;12379;49.820;8.648;2023-01-24T01:56:22;2.70;99.90
24250;DHT22;12379;49.820;8.648;2023-01-24T01:58:49;2.70;99.90
24250;DHT22;12379;49.820;8.648;2023-01-24T02:01:14;2.70;99.90
24250;DHT22;12379;49.820;8.648;2023-01-24T02:03:46;2.70;99.90
24250;DHT22;12379;49.820;8.648;2023-01-24T02:06:33;2.70;99.90
24250;DHT22;12379;49.820;8.648;2023-01-24T02:09:02;2.70;99.90
24250;DHT22;12379;49.820;8.648;2023-01-24T02:11:29;2.70;99.90
24250;DHT22;12379;49.820;8.648;2023-01-24T02:14:07;2.70;99.90
24250;DHT22;12379;49.820;8.648;2023-01-24T02:16:52;2.70;99.90
24250;DHT22;12379;49.820;8.648;2023-01-24T02:22:23;2.80;99.90
24250;DHT22;12379;49.820;8.648;2023-01-24T02:25:13;2.80;99.90
24250;DHT22;12379;49.820;8.648;2023-01-24T02:27:42;2.70;99.90
24250;DHT22;12379;49.820;8.648;2023-01-24T02:30:10;2.70;99.90
24250;DHT22;12379;49.820;8.648;2023-01-24T02:32:35;2.70;99.90
24250;DHT22;12379;49.820;8.648;2023-01-24T02:35:01;2.70;99.90
24250;DHT22;12379;49.820;8.648;2023-01-24T02:37:27;2.70;99.90
24250;DHT22;12379;49.820;8.648;2023-01-24T02:40:01;2.60;99.90
24250;DHT22;12379;49.820;8.648;2023-01-24T02:42:36;2.70;99.90
24250;DHT22;12379;49.820;8.648;2023-01-24T02:45:23;2.70;99.90
24250;DHT22;12379;49.820;8.648;2023-01-24T02:47:53;2.70;99.90
24250;DHT22;12379;49.820;8.648;2023-01-24T02:50:21;2.70;99.90
24250;DHT22;12379;49.820;8.648;2023-01-24T02:52:47;2.70;99.90
24250;DHT22;12379;49.820;8.648;2023-01-24T02:55:33;2.70;99.90
24250;DHT22;12379;49.820;8.648;2023-01-24T02:57:58;2.70;99.90
24250;DHT22;12379;49.820;8.648;2023-01-24T03:00:40;2.70;99.90
24250;DHT22;12379;49.820;8.648;2023-01-24T03:03:07;2.70;99.90
24250;DHT22;12379;49.820;8.648;2023-01-24T03:05:34;2.70;99.90
24250;DHT22;12379;49.820;8.648;2023-01-24T03:08:18;2.70;99.90
24250;DHT22;12379;49.820;8.648;2023-01-24T03:10:44;2.70;99.90
24250;DHT22;12379;49.820;8.648;2023-01-24T03:13:12;2.70;99.90
24250;DHT22;12379;49.820;8.648;2023-01-24T03:15:59;2.60;99.90
24250;DHT22;12379;49.820;8.648;2023-01-24T03:18:43;2.70;99.90
24250;DHT22;12379;49.820;8.648;2023-01-24T03:21:27;2.70;99.90
24250;DHT22;12379;49.820;8.648;2023-01-24T03:24:11;2.70;99.90
24250;DHT22;12379;49.820;8.648;2023-01-24T03:26:55;2.60;99.90
24250;DHT22;12379;49.820;8.648;2023-01-24T03:29:39;2.60;99.90
24250;DHT22;12379;49.820;8.648;2023-01-24T03:32:23;2.60;99.90
24250;DHT22;12379;49.820;8.648;2023-01-24T03:35:08;2.60;99.90
24250;DHT22;12379;49.820;8.648;2023-01-24T03:37:33;2.60;99.90
24250;DHT22;12379;49.820;8.648;2023-01-24T03:40:17;2.60;99.90
24250;DHT22;12379;49.820;8.648;2023-01-24T03:42:43;2.60;99.90
24250;DHT22;12379;49.820;8.648;2023-01-24T03:45:24;2.60;99.90
24250;DHT22;12379;49.820;8.648;2023-01-24T03:47:58;2.60;99.90
24250;DHT22;12379;49.820;8.648;2023-01-24T03:50:30;2.60;99.90
24250;DHT22;12379;49.820;8.648;2023-01-24T03:53:16;2.60;99.90
24250;DHT22;12379;49.820;8.648;2023-01-24T03:55:41;2.60;99.90
24250;DHT22;12379;49.820;8.648;2023-01-24T03:58:08;2.60;99.90
24250;DHT22;12379;49.820;8.648;2023-01-24T04:00:34;2.60;99.90
24250;DHT22;12379;49.820;8.648;2023-01-24T04:03:00;2.60;99.90
24250;DHT22;12379;49.820;8.648;2023-01-24T04:05:26;2.60;99.90
24250;DHT22;12379;49.820;8.648;2023-01-24T04:07:55;2.60;99.90
24250;DHT22;12379;49.820;8.648;2023-01-24T04:10:21;2.60;99.90
24250;DHT22;12379;49.820;8.648;2023-01-24T04:12:46;2.60;99.90
24250;DHT22;12379;49.820;8.648;2023-01-24T04:15:16;2.60;99.90
24250;DHT22;12379;49.820;8.648;2023-01-24T04:17:42;2.60;99.90
24250;DHT22;12379;49.820;8.648;2023-01-24T04:20:08;2.60;99.90
24250;DHT22;12379;49.820;8.648;2023-01-24T04:22:33;2.60;99.90
24250;DHT22;12379;49.820;8.648;2023-01-24T04:24:59;2.70;99.90
24250;DHT22;12379;49.820;8.648;2023-01-24T04:27:24;2.70;99.90
24250;DHT22;12379;49.820;8.648;2023-01-24T04:29:50;2.70;99.90
24250;DHT22;12379;49.820;8.648;2023-01-24T04:32:15;2.70;99.90
24250;DHT22;12379;49.820;8.648;2023-01-24T04:34:41;2.60;99.90
24250;DHT22;12379;49.820;8.648;2023-01-24T04:37:06;2.70;99.90
24250;DHT22;12379;49.820;8.648;2023-01-24T04:39:32;2.70;99.90
24250;DHT22;12379;49.820;8.648;2023-01-24T04:41:58;2.70;99.90
24250;DHT22;12379;49.820;8.648;2023-01-24T04:44:23;2.70;99.90
24250;DHT22;12379;49.820;8.648;2023-01-24T04:46:49;2.60;99.90
24250;DHT22;12379;49.820;8.648;2023-01-24T04:49:14;2.60;99.90
24250;DHT22;12379;49.820;8.648;2023-01-24T04:51:40;2.60;99.90
24250;DHT22;12379;49.820;8.648;2023-01-24T04:54:11;2.60;99.90
24250;DHT22;12379;49.820;8.648;2023-01-24T04:56:36;2.60;99.90
24250;DHT22;12379;49.820;8.648;2023-01-24T04:59:02;2.60;99.90
24250;DHT22;12379;49.820;8.648;2023-01-24T05:01:28;2.60;99.90
24250;DHT22;12379;49.820;8.648;2023-01-24T05:03:53;2.60;99.90
24250;DHT22;12379;49.820;8.648;2023-01-24T05:06:28;2.60;99.90
24250;DHT22;12379;49.820;8.648;2023-01-24T05:08:55;2.60;99.90
24250;DHT22;12379;49.820;8.648;2023-01-24T05:11:21;2.60;99.90
24250;DHT22;12379;49.820;8.648;2023-01-24T05:13:47;2.60;99.90
24250;DHT22;12379;49.820;8.648;2023-01-24T05:16:13;2.60;99.90
24250;DHT22;12379;49.820;8.648;2023-01-24T05:18:39;2.60;99.90
24250;DHT22;12379;49.820;8.648;2023-01-24T05:21:10;2.60;99.90
24250;DHT22;12379;49.820;8.648;2023-01-24T05:23:36;2.50;99.90
24250;DHT22;12379;49.820;8.648;2023-01-24T05:26:03;2.60;99.90
24250;DHT22;12379;49.820;8.648;2023-01-24T05:28:28;2.60;99.90
24250;DHT22;12379;49.820;8.648;2023-01-24T05:31:02;2.60;99.90
24250;DHT22;12379;49.820;8.648;2023-01-24T05:33:28;2.60;99.90
24250;DHT22;12379;49.820;8.648;2023-01-24T05:36:06;2.50;99.90
24250;DHT22;12379;49.820;8.648;2023-01-24T05:38:32;2.50;99.90
24250;DHT22;12379;49.820;8.648;2023-01-24T05:40:59;2.60;99.90
24250;DHT22;12379;49.820;8.648;2023-01-24T05:43:25;2.60;99.90
24250;DHT22;12379;49.820;8.648;2023-01-24T05:45:51;2.60;99.90
24250;DHT22;12379;49.820;8.648;2023-01-24T05:48:16;2.60;99.90
24250;DHT22;12379;49.820;8.648;2023-01-24T05:50:42;2.60;99.90
24250;DHT22;12379;49.820;8.648;2023-01-24T05:53:07;2.60;99.90
24250;DHT22;12379;49.820;8.648;2023-01-24T05:55:33;2.50;99.90
24250;DHT22;12379;49.820;8.648;2023-01-24T05:58:02;2.50;99.90
24250;DHT22;12379;49.820;8.648;2023-01-24T06:00:27;2.50;99.90
24250;DHT22;12379;49.820;8.648;2023-01-24T06:02:53;2.50;99.90
24250;DHT22;12379;49.820;8.648;2023-01-24T06:05:21;2.50;99.90
24250;DHT22;12379;49.820;8.648;2023-01-24T06:07:47;2.50;99.90
24250;DHT22;12379;49.820;8.648;2023-01-24T06:10:18;2.50;99.90
24250;DHT22;12379;49.820;8.648;2023-01-24T06:12:44;2.60;99.90
24250;DHT22;12379;49.820;8.648;2023-01-24T06:15:10;2.60;99.90
24250;DHT22;12379;49.820;8.648;2023-01-24T06:17:35;2.50;99.90
24250;DHT22;12379;49.820;8.648;2023-01-24T06:20:01;2.50;99.90
24250;DHT22;12379;49.820;8.648;2023-01-24T06:22:49;2.60;99.90
24250;DHT22;12379;49.820;8.648;2023-01-24T06:25:21;2.70;99.90
24250;DHT22;12379;49.820;8.648;2023-01-24T06:27:48;2.60;99.90
24250;DHT22;12379;49.820;8.648;2023-01-24T06:30:15;2.60;99.90
24250;DHT22;12379;49.820;8.648;2023-01-24T06:33:01;2.60;99.90
24250;DHT22;12379;49.820;8.648;2023-01-24T06:35:36;2.60;99.90
24250;DHT22;12379;49.820;8.648;2023-01-24T06:38:21;2.60;99.90
24250;DHT22;12379;49.820;8.648;2023-01-24T06:40:53;2.70;99.90
24250;DHT22;12379;49.820;8.648;2023-01-24T06:43:19;2.70;99.90
24250;DHT22;12379;49.820;8.648;2023-01-24T06:45:45;2.70;99.90
24250;DHT22;12379;49.820;8.648;2023-01-24T06:48:11;2.70;99.90
24250;DHT22;12379;49.820;8.648;2023-01-24T06:50:37;2.70;99.90
24250;DHT22;12379;49.820;8.648;2023-01-24T06:53:02;2.70;99.90
24250;DHT22;12379;49.820;8.648;2023-01-24T06:55:29;2.70;99.90
24250;DHT22;12379;49.820;8.648;2023-01-24T06:57:59;2.70;99.90
24250;DHT22;12379;49.820;8.648;2023-01-24T07:00:26;2.70;99.90
24250;DHT22;12379;49.820;8.648;2023-01-24T07:03:03;2.60;99.90
24250;DHT22;12379;49.820;8.648;2023-01-24T07:05:32;2.70;99.90
24250;DHT22;12379;49.820;8.648;2023-01-24T07:07:57;2.70;99.90
24250;DHT22;12379;49.820;8.648;2023-01-24T07:10:23;2.70;99.90
24250;DHT22;12379;49.820;8.648;2023-01-24T07:12:49;2.70;99.90
24250;DHT22;12379;49.820;8.648;2023-01-24T07:15:14;2.70;99.90
24250;DHT22;12379;49.820;8.648;2023-01-24T07:17:40;2.70;99.90
24250;DHT22;12379;49.820;8.648;2023-01-24T07:20:06;2.70;99.90
24250;DHT22;12379;49.820;8.648;2023-01-24T07:22:33;2.70;99.90
24250;DHT22;12379;49.820;8.648;2023-01-24T07:25:01;2.60;99.90
24250;DHT22;12379;49.820;8.648;2023-01-24T07:27:27;2.70;99.90
24250;DHT22;12379;49.820;8.648;2023-01-24T07:29:52;2.70;99.90
24250;DHT22;12379;49.820;8.648;2023-01-24T07:32:18;2.60;99.90
24250;DHT22;12379;49.820;8.648;2023-01-24T07:34:44;2.60;99.90
24250;DHT22;12379;49.820;8.648;2023-01-24T07:37:10;2.70;99.90
24250;DHT22;12379;49.820;8.648;2023-01-24T07:39:35;2.70;99.90
24250;DHT22;12379;49.820;8.648;2023-01-24T07:42:01;2.70;99.90
24250;DHT22;12379;49.820;8.648;2023-01-24T07:44:27;2.70;99.90
24250;DHT22;12379;49.820;8.648;2023-01-24T07:46:53;2.70;99.90
24250;DHT22;12379;49.820;8.648;2023-01-24T07:49:18;2.70;99.90
24250;DHT22;12379;49.820;8.648;2023-01-24T07:51:44;2.80;99.90
24250;DHT22;12379;49.820;8.648;2023-01-24T07:54:13;2.70;99.90
24250;DHT22;12379;49.820;8.648;2023-01-24T07:56:41;2.70;99.90
24250;DHT22;12379;49.820;8.648;2023-01-24T07:59:07;2.70;99.90
24250;DHT22;12379;49.820;8.648;2023-01-24T08:01:33;2.80;99.90
24250;DHT22;12379;49.820;8.648;2023-01-24T08:03:58;2.80;99.90
24250;DHT22;12379;49.820;8.648;2023-01-24T08:06:26;2.80;99.90
24250;DHT22;12379;49.820;8.648;2023-01-24T08:08:52;2.80;99.90
24250;DHT22;12379;49.820;8.648;2023-01-24T08:11:18;2.80;99.90
24250;DHT22;12379;49.820;8.648;2023-01-24T08:13:44;2.90;99.90
24250;DHT22;12379;49.820;8.648;2023-01-24T08:16:10;3.00;99.90
24250;DHT22;12379;49.820;8.648;2023-01-24T08:18:39;3.00;99.90
24250;DHT22;12379;49.820;8.648;2023-01-24T08:21:06;2.90;99.90
24250;DHT22;12379;49.820;8.648;2023-01-24T08:23:32;2.90;99.90
24250;DHT22;12379;49.820;8.648;2023-01-24T08:25:58;2.90;99.90
24250;DHT22;12379;49.820;8.648;2023-01-24T08:28:25;2.90;99.90
24250;DHT22;12379;49.820;8.648;2023-01-24T08:30:51;3.00;99.90
24250;DHT22;12379;49.820;8.648;2023-01-24T08:33:16;2.90;99.90
24250;DHT22;12379;49.820;8.648;2023-01-24T08:35:46;3.00;99.90
24250;DHT22;12379;49.820;8.648;2023-01-24T08:38:13;3.00;99.90
24250;DHT22;12379;49.820;8.648;2023-01-24T08:40:50;3.00;99.90
24250;DHT22;12379;49.820;8.648;2023-01-24T08:43:19;3.00;99.90
24250;DHT22;12379;49.820;8.648;2023-01-24T08:45:45;3.00;99.90
24250;DHT22;12379;49.820;8.648;2023-01-24T08:48:11;3.10;99.90
24250;DHT22;12379;49.820;8.648;2023-01-24T08:50:37;3.10;99.90
24250;DHT22;12379;49.820;8.648;2023-01-24T08:53:03;3.00;99.90
24250;DHT22;12379;49.820;8.648;2023-01-24T08:55:29;3.00;99.90
24250;DHT22;12379;49.820;8.648;2023-01-24T08:58:02;3.10;99.90
24250;DHT22;12379;49.820;8.648;2023-01-24T09:00:30;3.10;99.90
24250;DHT22;12379;49.820;8.648;2023-01-24T09:02:57;3.20;99.90
24250;DHT22;12379;49.820;8.648;2023-01-24T09:05:27;3.20;99.90
24250;DHT22;12379;49.820;8.648;2023-01-24T09:07:52;3.20;99.90
24250;DHT22;12379;49.820;8.648;2023-01-24T09:10:18;3.20;99.90
24250;DHT22;12379;49.820;8.648;2023-01-24T09:12:44;3.30;99.90
24250;DHT22;12379;49.820;8.648;2023-01-24T09:15:09;3.30;99.90
24250;DHT22;12379;49.820;8.648;2023-01-24T09:17:36;3.30;99.90
24250;DHT22;12379;49.820;8.648;2023-01-24T09:20:02;3.30;99.90
24250;DHT22;12379;49.820;8.648;2023-01-24T09:22:28;3.30;99.90
24250;DHT22;12379;49.820;8.648;2023-01-24T09:27:28;3.30;99.90
24250;DHT22;12379;49.820;8.648;2023-01-24T09:29:54;3.40;99.90
24250;DHT22;12379;49.820;8.648;2023-01-24T09:32:20;3.40;99.90
24250;DHT22;12379;49.820;8.648;2023-01-24T09:34:45;3.40;99.90
24250;DHT22;12379;49.820;8.648;2023-01-24T09:37:19;3.40;99.90
24250;DHT22;12379;49.820;8.648;2023-01-24T09:39:44;3.40;99.90
24250;DHT22;12379;49.820;8.648;2023-01-24T09:42:16;3.40;99.90
24250;DHT22;12379;49.820;8.648;2023-01-24T09:47:32;3.40;99.90
24250;DHT22;12379;49.820;8.648;2023-01-24T09:50:03;3.50;99.90
24250;DHT22;12379;49.820;8.648;2023-01-24T09:52:46;3.50;99.90
24250;DHT22;12379;49.820;8.648;2023-01-24T09:55:14;3.50;99.90
24250;DHT22;12379;49.820;8.648;2023-01-24T10:02:55;3.50;99.90
24250;DHT22;12379;49.820;8.648;2023-01-24T10:05:21;3.50;99.90
24250;DHT22;12379;49.820;8.648;2023-01-24T10:11:00;3.70;99.90
24250;DHT22;12379;49.820;8.648;2023-01-24T10:16:44;3.60;99.90
24250;DHT22;12379;49.820;8.648;2023-01-24T10:19:31;3.80;99.90
24250;DHT22;12379;49.820;8.648;2023-01-24T10:23:00;3.60;99.90
24250;DHT22;12379;49.820;8.648;2023-01-24T10:25:18;3.80;99.90
24250;DHT22;12379;49.820;8.648;2023-01-24T10:27:49;3.70;99.90
24250;DHT22;12379;49.820;8.648;2023-01-24T10:30:22;3.80;99.90
24250;DHT22;12379;49.820;8.648;2023-01-24T10:32:52;3.80;99.90
24250;DHT22;12379;49.820;8.648;2023-01-24T10:35:29;3.80;99.90
24250;DHT22;12379;49.820;8.648;2023-01-24T10:37:59;3.90;99.90
24250;DHT22;12379;49.820;8.648;2023-01-24T10:40:25;3.90;99.90
24250;DHT22;12379;49.820;8.648;2023-01-24T10:42:51;3.90;99.90
24250;DHT22;12379;49.820;8.648;2023-01-24T10:46:02;3.80;99.90
24250;DHT22;12379;49.820;8.648;2023-01-24T10:48:44;3.70;99.90
24250;DHT22;12379;49.820;8.648;2023-01-24T10:51:17;3.70;99.90
24250;DHT22;12379;49.820;8.648;2023-01-24T10:53:44;3.70;99.90
24250;DHT22;12379;49.820;8.648;2023-01-24T10:56:10;3.60;99.90
24250;DHT22;12379;49.820;8.648;2023-01-24T10:58:55;3.70;99.90
24250;DHT22;12379;49.820;8.648;2023-01-24T11:01:23;3.70;99.90
24250;DHT22;12379;49.820;8.648;2023-01-24T11:03:50;3.80;99.90
24250;DHT22;12379;49.820;8.648;2023-01-24T11:06:34;3.80;99.90
24250;DHT22;12379;49.820;8.648;2023-01-24T11:09:08;3.80;99.90
24250;DHT22;12379;49.820;8.648;2023-01-24T11:11:34;3.80;99.90
24250;DHT22;12379;49.820;8.648;2023-01-24T11:14:05;3.90;99.90
24250;DHT22;12379;49.820;8.648;2023-01-24T11:16:44;3.90;99.90
24250;DHT22;12379;49.820;8.648;2023-01-24T11:19:39;3.90;99.90
24250;DHT22;12379;49.820;8.648;2023-01-24T11:22:26;3.90;99.90
24250;DHT22;12379;49.820;8.648;2023-01-24T11:25:01;4.00;99.90
24250;DHT22;12379;49.820;8.648;2023-01-24T11:27:26;4.00;99.90
24250;DHT22;12379;49.820;8.648;2023-01-24T11:30:17;3.90;99.90
24250;DHT22;12379;49.820;8.648;2023-01-24T11:35:25;3.70;99.90
24250;DHT22;12379;49.820;8.648;2023-01-24T11:43:35;3.70;99.90
24250;DHT22;12379;49.820;8.648;2023-01-24T11:54:42;3.70;99.90
24250;DHT22;12379;49.820;8.648;2023-01-24T11:57:32;3.80;99.90
24250;DHT22;12379;49.820;8.648;2023-01-24T12:00:21;3.70;99.90
24250;DHT22;12379;49.820;8.648;2023-01-24T12:05:59;3.80;99.90
24250;DHT22;12379;49.820;8.648;2023-01-24T12:11:14;3.80;99.90
24250;DHT22;12379;49.820;8.648;2023-01-24T12:13:44;3.80;99.90
24250;DHT22;12379;49.820;8.648;2023-01-24T12:19:04;3.80;99.90
24250;DHT22;12379;49.820;8.648;2023-01-24T12:21:34;3.90;99.90
24250;DHT22;12379;49.820;8.648;2023-01-24T12:24:15;3.90;99.90
24250;DHT22;12379;49.820;8.648;2023-01-24T12:26:50;3.80;99.90
24250;DHT22;12379;49.820;8.648;2023-01-24T12:29:25;3.80;99.90
24250;DHT22;12379;49.820;8.648;2023-01-24T12:34:40;3.80;99.90
24250;DHT22;12379;49.820;8.648;2023-01-24T12:37:26;3.60;99.90
24250;DHT22;12379;49.820;8.648;2023-01-24T12:43:24;3.70;99.90
24250;DHT22;12379;49.820;8.648;2023-01-24T12:46:13;3.70;99.90
24250;DHT22;12379;49.820;8.648;2023-01-24T12:49:01;3.70;99.90
24250;DHT22;12379;49.820;8.648;2023-01-24T12:51:42;3.70;99.90
24250;DHT22;12379;49.820;8.648;2023-01-24T12:54:25;3.70;99.90
24250;DHT22;12379;49.820;8.648;2023-01-24T12:57:05;3.70;99.90
24250;DHT22;12379;49.820;8.648;2023-01-24T12:59:35;3.60;99.90
24250;DHT22;12379;49.820;8.648;2023-01-24T13:02:20;3.50;99.90
24250;DHT22;12379;49.820;8.648;2023-01-24T13:05:00;3.60;99.90
24250;DHT22;12379;49.820;8.648;2023-01-24T13:13:32;3.60;99.90
24250;DHT22;12379;49.820;8.648;2023-01-24T13:21:34;3.70;99.90
24250;DHT22;12379;49.820;8.648;2023-01-24T13:32:30;3.70;99.90
24250;DHT22;12379;49.820;8.648;2023-01-24T13:35:00;3.80;99.90
24250;DHT22;12379;49.820;8.648;2023-01-24T13:37:28;3.80;99.90
24250;DHT22;12379;49.820;8.648;2023-01-24T13:43:03;3.40;99.90
24250;DHT22;12379;49.820;8.648;2023-01-24T13:47:57;3.60;99.90
24250;DHT22;12379;49.820;8.648;2023-01-24T13:50:24;3.60;99.90
24250;DHT22;12379;49.820;8.648;2023-01-24T13:57:45;3.90;99.90
24250;DHT22;12379;49.820;8.648;2023-01-24T14:02:41;4.00;99.90
24250;DHT22;12379;49.820;8.648;2023-01-24T14:10:47;3.80;99.90
24250;DHT22;12379;49.820;8.648;2023-01-24T14:19:15;3.80;99.90
24250;DHT22;12379;49.820;8.648;2023-01-24T14:21:54;3.80;99.90
24250;DHT22;12379;49.820;8.648;2023-01-24T14:27:26;3.80;99.90
24250;DHT22;12379;49.820;8.648;2023-01-24T14:35:28;3.80;99.90
24250;DHT22;12379;49.820;8.648;2023-01-24T14:38:10;3.60;99.90
24250;DHT22;12379;49.820;8.648;2023-01-24T14:40:39;3.50;99.90
24250;DHT22;12379;49.820;8.648;2023-01-24T14:43:06;3.50;99.90
24250;DHT22;12379;49.820;8.648;2023-01-24T14:45:33;3.60;99.90
24250;DHT22;12379;49.820;8.648;2023-01-24T14:48:01;3.60;99.90
24250;DHT22;12379;49.820;8.648;2023-01-24T14:50:33;3.60;99.90
24250;DHT22;12379;49.820;8.648;2023-01-24T14:53:21;3.50;99.90
24250;DHT22;12379;49.820;8.648;2023-01-24T14:55:47;3.60;99.90
24250;DHT22;12379;49.820;8.648;2023-01-24T14:58:23;3.60;99.90
24250;DHT22;12379;49.820;8.648;2023-01-24T15:00:52;3.60;99.90
24250;DHT22;12379;49.820;8.648;2023-01-24T15:03:24;3.60;99.90
24250;DHT22;12379;49.820;8.648;2023-01-24T15:08:21;3.60;99.90
24250;DHT22;12379;49.820;8.648;2023-01-24T15:10:56;3.60;99.90
24250;DHT22;12379;49.820;8.648;2023-01-24T15:13:42;3.70;99.90
24250;DHT22;12379;49.820;8.648;2023-01-24T15:16:16;3.70;99.90
24250;DHT22;12379;49.820;8.648;2023-01-24T15:18:45;3.70;99.90
24250;DHT22;12379;49.820;8.648;2023-01-24T15:21:33;3.70;99.90
24250;DHT22;12379;49.820;8.648;2023-01-24T15:23:59;3.70;99.90
24250;DHT22;12379;49.820;8.648;2023-01-24T15:28:56;3.60;99.90
24250;DHT22;12379;49.820;8.648;2023-01-24T15:31:27;3.60;99.90
24250;DHT22;12379;49.820;8.648;2023-01-24T15:33:58;3.50;99.90
24250;DHT22;12379;49.820;8.648;2023-01-24T15:36:25;3.50;99.90
24250;DHT22;12379;49.820;8.648;2023-01-24T15:38:53;3.50;99.90
24250;DHT22;12379;49.820;8.648;2023-01-24T15:41:21;3.50;99.90
24250;DHT22;12379;49.820;8.648;2023-01-24T15:43:58;3.50;99.90
24250;DHT22;12379;49.820;8.648;2023-01-24T15:46:37;3.40;99.90
24250;DHT22;12379;49.820;8.648;2023-01-24T15:49:36;3.50;99.90
24250;DHT22;12379;49.820;8.648;2023-01-24T15:54:37;3.40;99.90
24250;DHT22;12379;49.820;8.648;2023-01-24T15:57:13;3.40;99.90
24250;DHT22;12379;49.820;8.648;2023-01-24T15:59:43;3.60;99.90
24250;DHT22;12379;49.820;8.648;2023-01-24T16:02:12;3.50;99.90
24250;DHT22;12379;49.820;8.648;2023-01-24T16:04:38;3.50;99.90
24250;DHT22;12379;49.820;8.648;2023-01-24T16:07:05;3.50;99.90
24250;DHT22;12379;49.820;8.648;2023-01-24T16:09:30;3.40;99.90
24250;DHT22;12379;49.820;8.648;2023-01-24T16:11:57;3.40;99.90
24250;DHT22;12379;49.820;8.648;2023-01-24T16:14:24;3.40;99.90
24250;DHT22;12379;49.820;8.648;2023-01-24T16:16:53;3.40;99.90
24250;DHT22;12379;49.820;8.648;2023-01-24T16:19:21;3.30;99.90
24250;DHT22;12379;49.820;8.648;2023-01-24T16:21:49;3.30;99.90
24250;DHT22;12379;49.820;8.648;2023-01-24T16:24:15;3.20;99.90
24250;DHT22;12379;49.820;8.648;2023-01-24T16:26:45;3.20;99.90
24250;DHT22;12379;49.820;8.648;2023-01-24T16:29:27;3.20;99.90
24250;DHT22;12379;49.820;8.648;2023-01-24T16:31:53;3.20;99.90
24250;DHT22;12379;49.820;8.648;2023-01-24T16:34:19;3.10;99.90
24250;DHT22;12379;49.820;8.648;2023-01-24T16:36:45;3.20;99.90
24250;DHT22;12379;49.820;8.648;2023-01-24T16:39:16;3.10;99.90
24250;DHT22;12379;49.820;8.648;2023-01-24T16:41:43;3.10;99.90
24250;DHT22;12379;49.820;8.648;2023-01-24T16:44:09;3.10;99.90
24250;DHT22;12379;49.820;8.648;2023-01-24T16:46:35;3.10;99.90
24250;DHT22;12379;49.820;8.648;2023-01-24T16:49:00;3.10;99.90
24250;DHT22;12379;49.820;8.648;2023-01-24T16:51:26;3.10;99.90
24250;DHT22;12379;49.820;8.648;2023-01-24T16:53:56;3.10;99.90
24250;DHT22;12379;49.820;8.648;2023-01-24T16:56:22;3.10;99.90
24250;DHT22;12379;49.820;8.648;2023-01-24T16:58:48;3.30;99.90
24250;DHT22;12379;49.820;8.648;2023-01-24T17:01:14;3.30;99.90
24250;DHT22;12379;49.820;8.648;2023-01-24T17:03:39;3.30;99.90
24250;DHT22;12379;49.820;8.648;2023-01-24T17:06:09;3.20;99.90
24250;DHT22;12379;49.820;8.648;2023-01-24T17:08:37;3.10;99.90
24250;DHT22;12379;49.820;8.648;2023-01-24T17:11:04;3.20;99.90
24250;DHT22;12379;49.820;8.648;2023-01-24T17:13:30;3.20;99.90
24250;DHT22;12379;49.820;8.648;2023-01-24T17:15:56;3.20;99.90
24250;DHT22;12379;49.820;8.648;2023-01-24T17:18:21;3.20;99.90
24250;DHT22;12379;49.820;8.648;2023-01-24T17:20:47;3.20;99.90
24250;DHT22;12379;49.820;8.648;2023-01-24T17:23:12;3.10;99.90
24250;DHT22;12379;49.820;8.648;2023-01-24T17:25:38;3.10;99.90
24250;DHT22;12379;49.820;8.648;2023-01-24T17:28:03;3.10;99.90
24250;DHT22;12379;49.820;8.648;2023-01-24T17:30:29;3.10;99.90
24250;DHT22;12379;49.820;8.648;2023-01-24T17:32:55;3.20;99.90
24250;DHT22;12379;49.820;8.648;2023-01-24T17:35:20;3.10;99.90
24250;DHT22;12379;49.820;8.648;2023-01-24T17:37:46;3.10;99.90
24250;DHT22;12379;49.820;8.648;2023-01-24T17:40:11;3.10;99.90
24250;DHT22;12379;49.820;8.648;2023-01-24T17:42:37;3.20;99.90
24250;DHT22;12379;49.820;8.648;2023-01-24T17:45:03;3.20;99.90
24250;DHT22;12379;49.820;8.648;2023-01-24T17:47:28;3.20;99.90
24250;DHT22;12379;49.820;8.648;2023-01-24T17:49:54;3.10;99.90
24250;DHT22;12379;49.820;8.648;2023-01-24T17:52:20;3.10;99.90
24250;DHT22;12379;49.820;8.648;2023-01-24T17:54:45;3.10;99.90
24250;DHT22;12379;49.820;8.648;2023-01-24T17:57:11;3.10;99.90